Time;durP1;ratioP1;P1;durP2;ratioP2;P2;SDS_P1;SDS_P2;PMS_P1;PMS_P2;Temp;Humidity;BMP_temperature;BMP_pressure;BME280_temperature;BME280_humidity;BME280_pressure;Samples;Min_cycle;Max_cycle;Signal;HPM_P1;HPM_P2
2023/08/21 04:01:14;;;;;;;0.70;0.10;;;24.10;99.90;;;;;;5540276;23;20488;-72
2023/08/21 04:03:43;;;;;;;0.60;0.10;;;;;;;;;;4926428;29;20448;-72
2023/08/21 04:06:11;;;;;;;0.60;0.10;;;23.80;99.90;;;;;;4920507;29;20936;-71
2023/08/21 04:08:39;;;;;;;0.70;0.30;;;;;;;;;;4918425;29;20448;-72
2023/08/21 04:11:07;;;;;;;0.97;0.87;;;23.70;99.90;;;;;;4911576;29;20465;-72
2023/08/21 04:13:35;;;;;;;3.60;1.60;;;;;;;;;;4966730;23;20495;31
2023/08/21 04:16:03;;;;;;;0.70;0.20;;;23.70;99.90;;;;;;4882952;29;20464;-69
2023/08/21 04:18:32;;;;;;;0.67;0.10;;;23.70;99.90;;;;;;4882740;29;20474;-69
2023/08/21 04:21:09;;;;;;;0.70;0.17;;;23.60;99.90;;;;;;4888302;29;20542;-69
2023/08/21 04:23:37;;;;;;;0.70;0.20;;;;;;;;;;4898697;29;20545;-69
2023/08/21 04:26:06;;;;;;;0.70;0.20;;;23.60;99.90;;;;;;4874127;29;20513;-70
2023/08/21 04:28:34;;;;;;;2.93;1.40;;;23.60;99.90;;;;;;4875115;29;20450;-70
2023/08/21 04:31:05;;;;;;;0.70;0.10;;;23.60;99.90;;;;;;4875097;29;20473;-70
2023/08/21 04:33:35;;;;;;;1.07;0.97;;;23.50;99.90;;;;;;4869059;29;20566;-69
2023/08/21 04:36:03;;;;;;;0.60;0.10;;;;;;;;;;4881241;29;20446;-70
2023/08/21 04:38:31;;;;;;;0.60;0.10;;;23.50;99.90;;;;;;4869880;29;20534;-69
2023/08/21 04:41:07;;;;;;;0.70;0.17;;;23.50;99.90;;;;;;4866795;29;20509;-69
2023/08/21 04:43:35;;;;;;;0.70;0.53;;;23.60;99.90;;;;;;4870361;29;21017;-69
2023/08/21 04:46:04;;;;;;;0.70;0.20;;;23.50;99.90;;;;;;4872441;29;20486;-69
2023/08/21 04:48:33;;;;;;;1.77;0.57;;;23.50;99.90;;;;;;4867379;29;20505;-69
2023/08/21 04:51:01;;;;;;;0.70;0.20;;;23.50;99.90;;;;;;4864582;29;20451;-69
2023/08/21 04:53:30;;;;;;;0.60;0.10;;;23.50;99.90;;;;;;4870697;29;20550;-70
2023/08/21 04:56:00;;;;;;;0.70;0.27;;;23.50;99.90;;;;;;4873533;29;20446;-70
2023/08/21 04:58:28;;;;;;;0.93;0.30;;;;;;;;;;4881355;29;20478;-70
2023/08/21 05:00:55;;;;;;;0.70;0.10;;;23.40;99.90;;;;;;4880525;29;20541;-69
2023/08/21 05:03:23;;;;;;;2.10;0.73;;;23.40;99.90;;;;;;4879922;29;20482;-70
2023/08/21 05:05:57;;;;;;;0.70;0.10;;;23.40;99.90;;;;;;4870900;29;20483;-70
2023/08/21 05:08:26;;;;;;;0.60;0.20;;;23.40;99.90;;;;;;4861709;29;20810;-69
2023/08/21 05:10:57;;;;;;;0.60;0.20;;;23.50;99.90;;;;;;4862533;29;20463;-69
2023/08/21 05:13:25;;;;;;;2.67;0.33;;;;;;;;;;4872248;29;20451;-69
2023/08/21 05:15:54;;;;;;;1.60;0.83;;;23.50;99.90;;;;;;4864879;29;20530;-69
2023/08/21 05:18:23;;;;;;;0.70;0.37;;;23.50;99.90;;;;;;4854874;29;20451;-69
2023/08/21 05:20:52;;;;;;;0.70;0.20;;;23.50;99.90;;;;;;4855900;29;20546;-69
2023/08/21 05:23:21;;;;;;;1.83;0.70;;;23.50;99.90;;;;;;4851858;29;20527;-69
2023/08/21 05:25:50;;;;;;;2.63;2.53;;;23.50;99.90;;;;;;4850716;29;20590;-69
2023/08/21 05:28:17;;;;;;;0.60;0.10;;;23.50;99.90;;;;;;4855944;29;20456;-69
2023/08/21 05:30:48;;;;;;;2.00;0.97;;;23.50;99.90;;;;;;4856511;29;20460;-68
2023/08/21 05:33:16;;;;;;;1.47;0.30;;;23.50;99.90;;;;;;4849342;29;20539;-69
2023/08/21 05:35:44;;;;;;;0.70;0.50;;;;;;;;;;4857060;29;20822;-69
2023/08/21 05:38:12;;;;;;;0.70;0.30;;;23.60;99.90;;;;;;4859079;29;20981;-70
2023/08/21 05:40:42;;;;;;;0.70;0.33;;;23.60;99.90;;;;;;4870049;29;20546;-69
2023/08/21 05:43:10;;;;;;;0.60;0.10;;;;;;;;;;4861193;29;20462;-69
2023/08/21 05:45:39;;;;;;;0.70;0.10;;;;;;;;;;4867278;29;20614;-70
2023/08/21 05:48:07;;;;;;;0.70;0.20;;;;;;;;;;4858041;29;20467;-71
2023/08/21 05:50:36;;;;;;;0.90;0.53;;;23.80;99.90;;;;;;4862211;29;20913;-70
2023/08/21 05:53:04;;;;;;;0.70;0.30;;;23.80;99.90;;;;;;4871710;29;20518;-71
2023/08/21 05:55:32;;;;;;;0.70;0.10;;;23.90;99.90;;;;;;4878122;29;20473;-71
2023/08/21 05:58:02;;;;;;;0.80;0.37;;;23.90;99.90;;;;;;4868552;29;20535;-71
2023/08/21 06:00:30;;;;;;;0.80;0.60;;;23.90;99.90;;;;;;4864153;29;20526;-71
2023/08/21 06:02:58;;;;;;;0.70;0.50;;;;;;;;;;4866228;29;20997;-71
2023/08/21 06:05:26;;;;;;;0.70;0.10;;;;;;;;;;4858767;29;20499;-71
2023/08/21 06:07:54;;;;;;;0.60;0.20;;;23.90;99.90;;;;;;4872878;29;20780;-71
2023/08/21 06:10:22;;;;;;;0.77;0.67;;;23.90;99.90;;;;;;4873065;29;20537;-71
2023/08/21 06:12:51;;;;;;;0.60;0.10;;;23.80;99.90;;;;;;4863940;29;20451;-72
2023/08/21 06:15:20;;;;;;;0.70;0.20;;;23.90;99.90;;;;;;4859611;29;21044;-71
2023/08/21 06:17:48;;;;;;;0.70;0.10;;;23.90;99.90;;;;;;4861071;29;20551;-73
2023/08/21 06:20:16;;;;;;;0.70;0.20;;;23.90;99.90;;;;;;4861273;29;20455;-72
2023/08/21 06:22:44;;;;;;;0.60;0.20;;;;;;;;;;4861023;29;20455;-72
2023/08/21 06:25:12;;;;;;;0.70;0.20;;;23.90;99.90;;;;;;4860380;29;20502;-71
2023/08/21 06:27:40;;;;;;;0.70;0.20;;;23.90;99.90;;;;;;4861355;29;20455;-71
2023/08/21 06:30:26;;;;;;;0.60;0.10;;;23.90;99.90;;;;;;4851709;29;20467;-70
2023/08/21 06:32:54;;;;;;;0.60;0.17;;;24.00;99.90;;;;;;4861638;29;20547;-71
2023/08/21 06:35:22;;;;;;;1.57;1.47;;;;;;;;;;4860393;29;20467;-70
2023/08/21 06:37:50;;;;;;;0.60;0.20;;;;;;;;;;4868435;29;20455;-71
2023/08/21 06:40:18;;;;;;;0.80;0.60;;;24.00;99.90;;;;;;4861907;29;20461;-71
2023/08/21 06:42:49;;;;;;;0.70;0.20;;;;;;;;;;4862794;29;20527;-71
2023/08/21 06:45:17;;;;;;;1.00;0.90;;;;;;;;;;4858172;29;20486;-72
2023/08/21 06:47:47;;;;;;;0.60;0.10;;;24.20;99.90;;;;;;4862068;29;20546;-71
2023/08/21 06:50:15;;;;;;;0.70;0.20;;;;;;;;;;4862888;29;20448;-73
2023/08/21 06:52:43;;;;;;;0.70;0.10;;;24.20;99.90;;;;;;4861395;29;20929;-72
2023/08/21 06:55:11;;;;;;;2.23;1.20;;;24.20;99.90;;;;;;4860459;29;20487;-72
2023/08/21 06:57:39;;;;;;;0.63;0.10;;;24.30;99.90;;;;;;4859733;29;20459;-71
2023/08/21 07:00:08;;;;;;;0.93;0.93;;;24.20;99.90;;;;;;4859499;29;20551;-71
2023/08/21 07:02:36;;;;;;;0.70;0.10;;;;;;;;;;4859470;29;20461;-71
2023/08/21 07:05:06;;;;;;;0.60;0.20;;;24.40;99.90;;;;;;4858904;29;20808;-73
2023/08/21 07:07:37;;;;;;;1.47;1.13;;;;;;;;;;4855040;29;20455;-70
2023/08/21 07:10:05;;;;;;;0.70;0.13;;;24.50;99.90;;;;;;4848351;29;20444;-71
2023/08/21 07:12:33;;;;;;;0.70;0.20;;;24.60;99.90;;;;;;4841110;29;20965;-72
2023/08/21 07:15:01;;;;;;;1.10;0.50;;;24.70;99.90;;;;;;4839901;29;20476;-72
2023/08/21 07:17:29;;;;;;;0.80;0.20;;;24.70;99.90;;;;;;4840914;29;20447;-72
2023/08/21 07:19:57;;;;;;;0.70;0.20;;;24.70;99.90;;;;;;4853700;29;20546;-72
2023/08/21 07:22:26;;;;;;;0.70;0.10;;;24.80;99.90;;;;;;4859487;29;20446;-69
2023/08/21 07:24:54;;;;;;;0.70;0.10;;;24.80;99.90;;;;;;4859584;29;20463;-71
2023/08/21 07:27:22;;;;;;;0.70;0.10;;;24.90;99.90;;;;;;4859949;29;20590;-71
2023/08/21 07:29:50;;;;;;;0.77;0.30;;;;;;;;;;4859093;29;20546;-70
2023/08/21 07:32:18;;;;;;;0.70;0.10;;;24.90;99.90;;;;;;4849275;29;20466;-71
2023/08/21 07:34:46;;;;;;;0.70;0.20;;;25.00;99.90;;;;;;4860043;29;20567;-71
2023/08/21 07:37:14;;;;;;;0.70;0.10;;;25.10;99.90;;;;;;4861308;29;20451;-72
2023/08/21 07:39:43;;;;;;;0.70;0.10;;;25.10;99.90;;;;;;4861692;29;20485;-71
2023/08/21 07:42:12;;;;;;;0.70;0.30;;;25.10;99.90;;;;;;4858907;29;20455;-71
2023/08/21 07:44:40;;;;;;;0.70;0.10;;;25.10;99.90;;;;;;4844166;29;20482;-71
2023/08/21 07:47:08;;;;;;;1.37;0.63;;;25.10;99.90;;;;;;4841007;29;20494;-71
2023/08/21 07:49:36;;;;;;;0.70;0.10;;;25.20;99.90;;;;;;4841605;29;20462;-73
2023/08/21 07:52:04;;;;;;;0.70;0.13;;;;;;;;;;4847773;29;20523;-71
2023/08/21 07:54:32;;;;;;;0.70;0.10;;;25.30;99.90;;;;;;4859467;29;20471;-73
2023/08/21 07:57:03;;;;;;;0.70;0.23;;;25.30;99.90;;;;;;4859311;29;20450;-73
2023/08/21 07:59:31;;;;;;;0.70;0.10;;;25.30;99.90;;;;;;4858904;29;20451;-72
2023/08/21 08:02:00;;;;;;;0.70;0.13;;;;;;;;;;4844329;29;20448;-72
2023/08/21 08:04:29;;;;;;;0.70;0.20;;;;;;;;;;4843844;29;20507;-72
2023/08/21 08:06:57;;;;;;;0.80;0.40;;;25.40;99.90;;;;;;4846374;29;20494;-70
2023/08/21 08:09:26;;;;;;;0.70;0.10;;;;;;;;;;4862350;29;21000;-73
2023/08/21 08:11:54;;;;;;;0.70;0.10;;;;;;;;;;4861575;29;20466;-71
2023/08/21 08:14:23;;;;;;;0.93;0.63;;;25.60;99.90;;;;;;4867018;29;20504;-70
2023/08/21 08:16:51;;;;;;;0.70;0.10;;;25.50;99.90;;;;;;4850112;29;20456;-71
2023/08/21 08:19:19;;;;;;;1.57;1.47;;;25.60;99.90;;;;;;4857698;29;20526;-71
2023/08/21 08:21:47;;;;;;;0.70;0.10;;;25.60;99.90;;;;;;4853702;29;20455;-72
2023/08/21 08:24:15;;;;;;;0.70;0.20;;;25.70;99.90;;;;;;4852735;29;20507;-71
2023/08/21 08:26:43;;;;;;;0.70;0.20;;;;;;;;;;4843217;29;20492;-72
2023/08/21 08:29:11;;;;;;;0.70;0.10;;;25.80;99.90;;;;;;4850274;29;20888;-71
2023/08/21 08:31:40;;;;;;;0.70;0.10;;;25.80;99.90;;;;;;4851654;29;20508;-70
2023/08/21 08:34:08;;;;;;;0.70;0.10;;;25.90;99.90;;;;;;4860397;29;20478;-71
2023/08/21 08:36:36;;;;;;;0.70;0.20;;;26.00;99.90;;;;;;4852808;29;20530;-70
2023/08/21 08:39:05;;;;;;;0.70;0.10;;;26.00;99.90;;;;;;4860671;29;20864;-71
2023/08/21 08:41:43;;;;;;;0.80;0.30;;;26.10;99.90;;;;;;4859165;29;20552;-69
2023/08/21 08:44:15;;;;;;;0.70;0.20;;;26.10;99.90;;;;;;4845136;29;20532;-71
2023/08/21 08:46:45;;;;;;;0.70;0.10;;;26.10;99.90;;;;;;4845879;29;20535;-70
2023/08/21 08:49:13;;;;;;;0.70;0.20;;;26.20;99.90;;;;;;4853584;29;20542;-72
2023/08/21 08:51:43;;;;;;;0.70;0.20;;;26.30;99.90;;;;;;4849841;29;20533;-72
2023/08/21 08:54:13;;;;;;;0.70;0.17;;;26.40;99.90;;;;;;4841764;29;20481;-72
2023/08/21 08:56:41;;;;;;;0.70;0.13;;;26.40;99.90;;;;;;4841922;29;20463;-73
2023/08/21 08:59:09;;;;;;;0.70;0.10;;;26.50;99.90;;;;;;4854933;29;20957;-73
2023/08/21 09:01:38;;;;;;;0.70;0.20;;;;;;;;;;4843213;29;20547;-72
2023/08/21 09:04:07;;;;;;;0.70;0.10;;;26.40;99.90;;;;;;4841773;29;21070;-72
2023/08/21 09:06:35;;;;;;;0.70;0.10;;;26.50;99.90;;;;;;4842232;29;20500;-70
2023/08/21 09:09:03;;;;;;;0.70;0.10;;;26.60;99.90;;;;;;4853676;29;20461;-70
2023/08/21 09:11:33;;;;;;;0.70;0.10;;;26.70;99.90;;;;;;4858045;29;20453;-70
2023/08/21 09:14:01;;;;;;;0.70;0.20;;;26.80;99.90;;;;;;4860047;29;20483;-69
2023/08/21 09:16:29;;;;;;;0.70;0.10;;;;;;;;;;4859437;29;20854;-67
2023/08/21 09:18:58;;;;;;;0.70;0.20;;;26.90;99.90;;;;;;4852282;29;20543;-67
2023/08/21 09:21:28;;;;;;;0.70;0.10;;;27.00;99.90;;;;;;4844577;29;20554;-67
2023/08/21 09:24:02;;;;;;;0.70;0.20;;;27.00;99.90;;;;;;4842823;29;20472;-65
2023/08/21 09:26:32;;;;;;;0.70;0.10;;;27.00;99.90;;;;;;4843555;29;20463;-67
2023/08/21 09:29:02;;;;;;;0.70;0.10;;;27.10;99.90;;;;;;4851911;29;20483;-67
2023/08/21 09:31:32;;;;;;;0.70;0.10;;;27.20;99.90;;;;;;4853962;29;20462;-67
2023/08/21 09:34:04;;;;;;;0.70;0.10;;;27.20;99.90;;;;;;4861420;29;20475;-67
2023/08/21 09:36:35;;;;;;;0.70;0.20;;;27.30;99.90;;;;;;4860224;29;20465;-67
2023/08/21 09:39:05;;;;;;;0.70;0.20;;;27.30;99.90;;;;;;4859503;29;20463;-66
2023/08/21 09:41:33;;;;;;;0.70;0.10;;;27.30;99.90;;;;;;4857851;29;20536;-66
2023/08/21 09:44:03;;;;;;;0.70;0.10;;;27.40;99.90;;;;;;4844312;29;20516;-66
2023/08/21 09:46:31;;;;;;;0.80;0.50;;;27.50;99.90;;;;;;4841818;29;20461;-65
2023/08/21 09:49:00;;;;;;;0.70;0.20;;;27.50;99.90;;;;;;4848287;29;20542;-66
2023/08/21 09:51:30;;;;;;;0.70;0.20;;;;;;;;;;4859997;29;20540;-65
2023/08/21 09:54:03;;;;;;;0.70;0.20;;;27.70;99.90;;;;;;4854261;29;20561;-66
2023/08/21 09:56:31;;;;;;;0.70;0.10;;;27.80;99.90;;;;;;4856248;29;20532;-67
2023/08/21 09:58:59;;;;;;;0.70;0.10;;;27.80;99.90;;;;;;4852094;29;20461;-67
2023/08/21 10:01:29;;;;;;;0.70;0.20;;;27.80;99.90;;;;;;4852663;29;21025;-67
2023/08/21 10:04:02;;;;;;;0.70;0.10;;;28.00;99.90;;;;;;4856190;29;20560;-66
2023/08/21 10:06:31;;;;;;;0.70;0.10;;;28.10;99.90;;;;;;4850239;29;20462;-67
2023/08/21 10:09:01;;;;;;;0.70;0.17;;;28.20;99.90;;;;;;4854811;29;20485;-68
2023/08/21 10:11:31;;;;;;;0.70;0.20;;;28.20;99.90;;;;;;4860274;29;20448;-68
2023/08/21 10:14:00;;;;;;;3.77;0.63;;;;;;;;;;4902171;23;20466;-74
2023/08/21 10:16:28;;;;;;;0.70;0.20;;;;;;;;;;4908283;29;20452;-73
2023/08/21 10:18:56;;;;;;;0.70;0.13;;;28.30;99.90;;;;;;4913213;29;20477;-73
2023/08/21 10:21:25;;;;;;;2.40;1.53;;;28.40;99.90;;;;;;4915890;29;20479;-74
2023/08/21 10:23:56;;;;;;;0.70;0.20;;;28.40;94.70;;;;;;4913462;29;20514;-74
2023/08/21 10:26:27;;;;;;;0.70;0.20;;;28.40;94.00;;;;;;4914383;29;20455;-74
2023/08/21 10:29:02;;;;;;;1.83;0.80;;;28.50;91.00;;;;;;4901436;29;20499;-74
2023/08/21 10:31:35;;;;;;;0.70;0.13;;;28.50;96.30;;;;;;4897953;29;20451;-74
2023/08/21 10:34:05;;;;;;;0.70;0.20;;;28.70;93.10;;;;;;4895407;29;20482;-73
2023/08/21 10:37:05;;;;;;;0.70;0.10;;;28.80;93.90;;;;;;4897259;29;20874;-73
2023/08/21 10:39:35;;;;;;;0.70;0.10;;;;;;;;;;4897129;29;20922;-74
2023/08/21 10:42:06;;;;;;;0.70;0.17;;;28.90;93.00;;;;;;4896875;29;20540;-74
2023/08/21 10:44:51;;;;;;;0.73;0.27;;;29.00;92.10;;;;;;4896869;29;20504;-73
2023/08/21 10:47:21;;;;;;;0.70;0.20;;;29.10;92.00;;;;;;4897075;29;20449;-73
2023/08/21 10:49:52;;;;;;;0.70;0.10;;;29.10;88.90;;;;;;4897201;29;20966;-74
2023/08/21 10:52:25;;;;;;;0.70;0.10;;;29.20;86.90;;;;;;4896979;29;20450;-73
2023/08/21 10:54:54;;;;;;;0.90;0.40;;;29.20;84.10;;;;;;4898172;29;20512;-74
2023/08/21 10:57:25;;;;;;;0.70;0.30;;;29.30;76.20;;;;;;4901518;29;20836;-74
2023/08/21 10:59:57;;;;;;;0.70;0.10;;;29.40;76.30;;;;;;4903869;29;20990;-73
2023/08/21 11:02:28;;;;;;;3.33;0.43;;;29.40;76.80;;;;;;4910992;29;20453;-73
2023/08/21 11:04:57;;;;;;;0.70;0.20;;;29.50;72.40;;;;;;4905606;29;21005;-73
2023/08/21 11:07:26;;;;;;;0.70;0.10;;;29.50;69.50;;;;;;4901307;29;20457;-75
2023/08/21 11:09:54;;;;;;;0.70;0.20;;;29.50;69.80;;;;;;4884027;29;20474;-73
2023/08/21 11:12:25;;;;;;;0.80;0.57;;;29.60;79.50;;;;;;4881861;29;20955;-74
2023/08/21 11:14:53;;;;;;;0.70;0.10;;;29.80;64.00;;;;;;4880266;29;20543;-74
2023/08/21 11:17:23;;;;;;;0.70;0.10;;;29.90;64.90;;;;;;4887042;29;20465;-73
2023/08/21 11:19:51;;;;;;;0.70;0.20;;;29.90;60.20;;;;;;4900804;29;20457;-74
2023/08/21 11:22:19;;;;;;;0.70;0.17;;;30.10;62.00;;;;;;4899727;29;20526;-74
2023/08/21 11:24:50;;;;;;;0.70;0.20;;;30.10;61.50;;;;;;4898197;29;20481;-73
2023/08/21 11:27:19;;;;;;;0.70;0.20;;;30.10;72.80;;;;;;4896394;29;20460;-74
2023/08/21 11:29:53;;;;;;;0.70;0.20;;;30.10;52.70;;;;;;4896165;29;20489;-74
2023/08/21 11:32:23;;;;;;;0.87;0.40;;;30.10;52.90;;;;;;4896762;29;20453;-75
2023/08/21 11:34:53;;;;;;;0.70;0.17;;;30.10;49.00;;;;;;4897002;29;20989;-75
2023/08/21 11:37:23;;;;;;;0.70;0.20;;;30.10;50.30;;;;;;4900044;29;20539;-75
2023/08/21 11:39:53;;;;;;;0.70;0.20;;;30.30;54.20;;;;;;4899252;29;20493;-75
2023/08/21 11:42:22;;;;;;;0.70;0.10;;;30.30;54.10;;;;;;4893996;29;20959;-75
2023/08/21 11:44:54;;;;;;;0.70;0.20;;;30.50;49.70;;;;;;4897327;29;20474;-75
2023/08/21 11:47:23;;;;;;;0.70;0.20;;;30.50;46.10;;;;;;4899431;29;20457;-73
2023/08/21 11:49:52;;;;;;;0.70;0.10;;;30.60;34.50;;;;;;4899359;29;20614;-74
2023/08/21 11:52:22;;;;;;;1.10;0.60;;;30.70;25.50;;;;;;4898460;29;20852;-75
2023/08/21 11:54:51;;;;;;;0.80;0.40;;;30.50;23.00;;;;;;4898750;29;20504;-74
2023/08/21 11:57:19;;;;;;;0.70;0.17;;;30.50;23.30;;;;;;4899176;29;20449;-74
2023/08/21 11:59:51;;;;;;;0.70;0.10;;;;;;;;;;4899416;29;20504;-74
2023/08/21 12:02:24;;;;;;;0.70;0.30;;;30.70;20.00;;;;;;4899088;29;20484;-75
2023/08/21 12:04:55;;;;;;;0.70;0.20;;;30.70;20.10;;;;;;4899034;29;20481;-73
2023/08/21 12:07:23;;;;;;;0.70;0.20;;;30.80;20.10;;;;;;4899916;29;20872;-73
2023/08/21 12:09:50;;;;;;;0.70;0.20;;;31.00;21.10;;;;;;4899431;29;20488;-74
2023/08/21 12:12:19;;;;;;;0.70;0.20;;;31.00;16.90;;;;;;4898495;29;20540;-75
2023/08/21 12:14:47;;;;;;;0.70;0.20;;;31.00;16.60;;;;;;4898477;29;20495;-77
2023/08/21 12:17:15;;;;;;;0.70;0.10;;;31.10;17.70;;;;;;4898731;29;20453;-75
2023/08/21 12:19:44;;;;;;;0.70;0.10;;;31.10;16.40;;;;;;4895823;29;20472;-74
2023/08/21 12:22:12;;;;;;;0.70;0.20;;;31.10;25.30;;;;;;4893370;29;20457;-74
2023/08/21 12:24:40;;;;;;;0.70;0.20;;;31.20;19.20;;;;;;4898604;29;20484;-74
2023/08/21 12:27:08;;;;;;;0.70;0.20;;;31.20;28.70;;;;;;4898550;29;20504;-74
2023/08/21 12:29:36;;;;;;;0.70;0.20;;;;;;;;;;4899847;29;20556;-73
2023/08/21 12:32:05;;;;;;;3.30;3.10;;;31.30;21.20;;;;;;4899003;29;20453;-74
2023/08/21 12:34:33;;;;;;;0.70;0.20;;;31.30;20.10;;;;;;4898991;29;20505;-74
2023/08/21 12:37:03;;;;;;;0.70;0.20;;;31.40;20.60;;;;;;4900260;29;20890;-74
2023/08/21 12:39:31;;;;;;;0.70;0.20;;;31.50;22.80;;;;;;4900649;29;20510;-74
2023/08/21 12:41:59;;;;;;;0.70;0.20;;;31.30;15.30;;;;;;4898800;29;20815;-73
2023/08/21 12:44:27;;;;;;;0.70;0.20;;;31.30;16.30;;;;;;4885984;29;20477;-73
2023/08/21 12:46:55;;;;;;;0.87;0.40;;;;;;;;;;4887241;29;20456;-75
2023/08/21 12:49:23;;;;;;;1.73;0.77;;;31.30;19.50;;;;;;4901520;29;20488;-74
2023/08/21 12:51:51;;;;;;;0.70;0.20;;;31.50;14.00;;;;;;4899524;29;20473;-74
2023/08/21 12:54:20;;;;;;;1.13;0.60;;;31.40;5.40;;;;;;4894314;29;20474;-75
2023/08/21 12:56:48;;;;;;;0.80;0.33;;;31.40;6.70;;;;;;4892045;29;20449;-74
2023/08/21 12:59:16;;;;;;;0.70;0.20;;;31.40;7.40;;;;;;4898735;29;20473;-74
2023/08/21 13:01:47;;;;;;;0.70;0.10;;;31.40;15.70;;;;;;4898675;29;20460;-75
2023/08/21 13:04:15;;;;;;;0.70;0.20;;;31.60;6.80;;;;;;4898455;29;20496;-75
2023/08/21 13:06:42;;;;;;;0.70;0.10;;;31.60;5.00;;;;;;4898809;29;20457;-75
2023/08/21 13:09:10;;;;;;;0.70;0.20;;;31.60;4.60;;;;;;4897915;29;20493;-74
2023/08/21 13:11:40;;;;;;;0.70;0.20;;;;;;;;;;4897710;29;20449;-74
2023/08/21 13:14:08;;;;;;;0.70;0.20;;;31.50;9.60;;;;;;4897488;29;20485;-74
2023/08/21 13:16:36;;;;;;;0.70;0.20;;;31.60;7.50;;;;;;4898450;29;20450;-74
2023/08/21 13:19:03;;;;;;;0.70;0.10;;;31.60;8.50;;;;;;4898214;29;20481;-73
2023/08/21 13:21:31;;;;;;;0.70;0.20;;;31.70;6.80;;;;;;4897866;29;20544;-75
2023/08/21 13:23:59;;;;;;;0.70;0.20;;;31.70;7.30;;;;;;4898441;29;20564;-75
2023/08/21 13:26:31;;;;;;;0.70;0.17;;;31.70;15.20;;;;;;4897418;29;20457;-74
2023/08/21 13:29:00;;;;;;;0.70;0.20;;;31.70;6.90;;;;;;4897405;29;20488;-76
2023/08/21 13:31:28;;;;;;;0.70;0.10;;;31.70;15.50;;;;;;4896873;29;20480;-73
2023/08/21 13:33:57;;;;;;;0.70;0.17;;;32.00;7.10;;;;;;4878868;29;20498;-74
2023/08/21 13:36:24;;;;;;;0.90;0.50;;;32.00;15.90;;;;;;4893448;29;20545;-74
2023/08/21 13:38:57;;;;;;;0.80;0.40;;;32.10;15.20;;;;;;4897234;29;20453;-74
2023/08/21 13:41:24;;;;;;;0.70;0.27;;;32.10;5.70;;;;;;4897115;29;20485;-75
2023/08/21 13:43:52;;;;;;;0.80;0.20;;;32.80;5.50;;;;;;4888168;29;20442;-75
2023/08/21 13:46:23;;;;;;;0.70;0.10;;;32.00;13.60;;;;;;4878662;29;20454;-76
2023/08/21 13:48:51;;;;;;;0.70;0.20;;;32.10;9.20;;;;;;4893952;29;20488;-74
2023/08/21 13:51:19;;;;;;;0.80;0.20;;;31.80;6.60;;;;;;4897048;29;20463;-73
2023/08/21 13:53:49;;;;;;;0.80;0.20;;;31.80;6.80;;;;;;4896441;29;20455;-75
2023/08/21 13:56:17;;;;;;;0.70;0.20;;;31.80;15.00;;;;;;4883357;29;20457;-75
2023/08/21 13:58:45;;;;;;;0.70;0.20;;;31.80;15.00;;;;;;4895973;29;20445;-76
2023/08/21 14:01:13;;;;;;;0.70;0.30;;;31.70;14.90;;;;;;4896774;29;20472;-75
2023/08/21 14:03:42;;;;;;;1.00;0.20;;;31.50;8.60;;;;;;4896429;29;20459;-76
2023/08/21 14:06:11;;;;;;;0.70;0.20;;;31.50;12.80;;;;;;4896631;29;20529;-73
2023/08/21 14:08:39;;;;;;;0.70;0.20;;;31.50;13.20;;;;;;4887489;29;20458;-75
2023/08/21 14:11:07;;;;;;;0.70;0.20;;;31.40;13.20;;;;;;4880266;29;21070;-75
2023/08/21 14:13:35;;;;;;;0.80;0.30;;;31.40;15.10;;;;;;4887165;29;20510;-75
2023/08/21 14:16:06;;;;;;;0.70;0.10;;;31.50;16.00;;;;;;4887324;29;20458;-73
2023/08/21 14:18:34;;;;;;;0.70;0.10;;;31.50;24.30;;;;;;4903257;29;20453;-75
2023/08/21 14:21:03;;;;;;;0.70;0.20;;;31.50;15.10;;;;;;4898506;29;20448;-75
2023/08/21 14:23:31;;;;;;;0.70;0.10;;;31.50;23.80;;;;;;4898502;29;20459;-75
2023/08/21 14:26:01;;;;;;;0.70;0.10;;;31.60;15.50;;;;;;4897487;29;20449;-74
2023/08/21 14:28:29;;;;;;;2.00;1.90;;;31.70;14.50;;;;;;4898109;29;20488;-74
2023/08/21 14:30:57;;;;;;;0.90;0.60;;;31.70;22.80;;;;;;4898924;29;20489;-74
2023/08/21 14:33:25;;;;;;;0.70;0.20;;;31.90;11.70;;;;;;4900300;29;20818;-73
2023/08/21 14:35:53;;;;;;;0.70;0.20;;;34.60;12.80;;;;;;4899172;29;20537;-72
2023/08/21 14:38:23;;;;;;;0.70;0.10;;;32.10;20.00;;;;;;4899014;29;20449;-74
2023/08/21 14:40:52;;;;;;;0.70;0.20;;;32.20;8.70;;;;;;4897745;29;20472;-74
2023/08/21 14:43:20;;;;;;;0.70;0.20;;;32.20;17.30;;;;;;4891968;29;21719;-75
2023/08/21 14:45:48;;;;;;;0.80;0.30;;;32.30;11.10;;;;;;4895491;29;20520;-75
2023/08/21 14:48:16;;;;;;;0.70;0.20;;;32.30;8.10;;;;;;4896124;29;20463;-75
2023/08/21 14:50:43;;;;;;;0.70;0.20;;;32.40;8.00;;;;;;4896342;29;20557;-75
2023/08/21 14:53:11;;;;;;;0.70;0.20;;;32.40;9.20;;;;;;4896512;29;20488;-74
2023/08/21 14:55:41;;;;;;;0.70;0.20;;;32.40;7.20;;;;;;4895798;29;20529;-75
2023/08/21 14:58:09;;;;;;;0.70;0.20;;;32.40;7.20;;;;;;4895909;29;20815;-76
2023/08/21 15:00:37;;;;;;;0.70;0.20;;;32.30;12.00;;;;;;4897002;29;20453;-74
2023/08/21 15:03:05;;;;;;;0.87;0.40;;;32.30;20.10;;;;;;4897010;29;20450;-74
2023/08/21 15:05:33;;;;;;;1.23;0.70;;;32.30;12.90;;;;;;4896331;29;20480;-75
2023/08/21 15:08:01;;;;;;;0.70;0.20;;;32.30;18.90;;;;;;4896512;29;20458;-74
2023/08/21 15:10:29;;;;;;;0.70;0.20;;;32.20;20.60;;;;;;4902002;29;20544;-74
2023/08/21 15:12:58;;;;;;;0.70;0.20;;;32.30;21.10;;;;;;4902757;29;20532;-75
2023/08/21 15:15:26;;;;;;;0.70;0.20;;;32.70;11.50;;;;;;4902005;29;20580;-73
2023/08/21 15:17:54;;;;;;;0.70;0.20;;;32.80;10.10;;;;;;4898672;29;20513;-73
2023/08/21 15:20:22;;;;;;;0.70;0.20;;;32.90;13.60;;;;;;4898903;29;20469;-73
2023/08/21 15:22:51;;;;;;;0.70;0.20;;;33.00;11.90;;;;;;4902995;29;20448;-73
2023/08/21 15:25:20;;;;;;;0.70;0.20;;;33.00;10.30;;;;;;4902091;29;20465;-74
2023/08/21 15:27:48;;;;;;;0.70;0.20;;;33.10;20.80;;;;;;4902258;29;20453;-74
2023/08/21 15:30:18;;;;;;;0.70;0.10;;;;;;;;;;4901940;29;20920;-75
2023/08/21 15:32:47;;;;;;;0.70;0.20;;;33.20;14.70;;;;;;4902389;29;20469;-74
2023/08/21 15:35:15;;;;;;;0.70;0.20;;;33.40;13.60;;;;;;4901652;29;20866;-74
2023/08/21 15:37:44;;;;;;;0.70;0.20;;;33.50;10.20;;;;;;4902102;29;20457;-74
2023/08/21 15:40:13;;;;;;;0.70;0.17;;;33.40;7.80;;;;;;4902388;29;20520;-74
2023/08/21 15:42:41;;;;;;;0.70;0.20;;;33.30;9.40;;;;;;4901221;29;20485;-73
2023/08/21 15:45:10;;;;;;;0.90;0.60;;;;;;;;;;4883196;29;20485;-74
2023/08/21 15:47:39;;;;;;;0.70;0.20;;;33.00;6.70;;;;;;4883283;29;20506;-74
2023/08/21 15:50:15;;;;;;;0.70;0.20;;;32.90;9.70;;;;;;4883176;29;20503;-73
2023/08/21 15:52:44;;;;;;;0.70;0.20;;;32.90;7.50;;;;;;4888579;29;20484;-74
2023/08/21 15:55:12;;;;;;;0.70;0.20;;;32.90;9.00;;;;;;4893825;29;20473;-75
2023/08/21 15:57:40;;;;;;;0.70;0.23;;;33.00;19.70;;;;;;4902173;29;20484;-74
2023/08/21 16:00:09;;;;;;;0.70;0.20;;;33.10;8.80;;;;;;4902706;29;20884;-73
2023/08/21 16:02:40;;;;;;;0.70;0.20;;;33.20;16.80;;;;;;4905938;29;20457;-75
2023/08/21 16:05:10;;;;;;;0.70;0.10;;;33.30;7.70;;;;;;4902872;29;20477;-75
2023/08/21 16:07:38;;;;;;;0.70;0.20;;;33.50;7.60;;;;;;4903148;29;20803;-74
2023/08/21 16:10:07;;;;;;;0.70;0.20;;;33.70;5.80;;;;;;4901881;29;20499;-75
2023/08/21 16:12:35;;;;;;;0.70;0.20;;;33.80;6.80;;;;;;4902465;29;20958;-75
2023/08/21 16:15:04;;;;;;;0.70;0.20;;;33.90;6.80;;;;;;4902736;29;20512;-75
2023/08/21 16:17:31;;;;;;;0.70;0.10;;;34.10;5.80;;;;;;4902863;29;20792;-74
2023/08/21 16:20:04;;;;;;;0.70;0.10;;;34.10;4.40;;;;;;4901598;29;20468;-75
2023/08/21 16:22:32;;;;;;;0.70;0.10;;;33.90;2.30;;;;;;4899355;29;20520;-75
2023/08/21 16:25:01;;;;;;;0.70;0.10;;;33.70;4.50;;;;;;4899800;29;20556;-74
2023/08/21 16:27:29;;;;;;;0.70;0.20;;;33.40;2.60;;;;;;4905260;29;20461;-75
2023/08/21 16:29:56;;;;;;;0.70;0.40;;;33.20;1.00;;;;;;4893863;29;20528;-76
2023/08/21 16:32:24;;;;;;;0.70;0.20;;;32.90;1.00;;;;;;4895521;29;20568;-73
2023/08/21 16:34:53;;;;;;;0.70;0.10;;;;;;;;;;4898580;29;20472;-74
2023/08/21 16:37:22;;;;;;;0.70;0.10;;;32.70;7.40;;;;;;4899390;29;20485;-74
2023/08/21 16:39:50;;;;;;;0.80;0.50;;;32.70;15.50;;;;;;4899499;29;20457;-74
2023/08/21 16:42:18;;;;;;;0.70;0.20;;;32.80;3.50;;;;;;4899017;29;20449;-73
2023/08/21 16:44:46;;;;;;;0.70;0.20;;;32.70;5.10;;;;;;4898858;29;20552;-73
2023/08/21 16:47:13;;;;;;;0.70;0.20;;;32.70;5.90;;;;;;4899029;29;20457;-75
2023/08/21 16:49:41;;;;;;;0.70;0.20;;;32.70;12.90;;;;;;4899775;29;20453;-74
2023/08/21 16:52:09;;;;;;;0.80;0.40;;;32.70;6.10;;;;;;4899290;29;20489;-75
2023/08/21 16:54:39;;;;;;;0.70;0.10;;;32.50;5.50;;;;;;4899107;29;21050;-74
2023/08/21 16:57:06;;;;;;;0.70;0.20;;;32.60;14.10;;;;;;4898054;29;20511;-75
2023/08/21 16:59:34;;;;;;;0.70;0.20;;;32.60;12.60;;;;;;4898726;29;20485;-75
2023/08/21 17:02:02;;;;;;;0.70;0.20;;;32.40;10.30;;;;;;4898839;29;20477;-75
2023/08/21 17:04:30;;;;;;;0.70;0.20;;;32.20;3.70;;;;;;4898338;29;21016;-74
2023/08/21 17:06:58;;;;;;;0.70;0.20;;;32.20;13.30;;;;;;4890571;29;20488;-76
2023/08/21 17:09:26;;;;;;;0.70;0.20;;;32.10;10.80;;;;;;4898097;29;20513;-76
2023/08/21 17:11:55;;;;;;;0.70;0.20;;;31.90;6.90;;;;;;4898543;29;20540;-76